Time;durP1;ratioP1;P1;durP2;ratioP2;P2;SDS_P1;SDS_P2;PMS_P1;PMS_P2;Temp;Humidity;BMP_temperature;BMP_pressure;BME280_temperature;BME280_humidity;BME280_pressure;Samples;Min_cycle;Max_cycle;Signal;HPM_P1;HPM_P2
2021/03/05 00:00:21;;;;;;;37.22;16.88;;;10.80;99.90;;;;;;5073927;28;20028;-81
2021/03/05 00:02:48;;;;;;;29.98;17.25;;;10.70;99.90;;;;;;5075058;28;20507;-79
2021/03/05 00:05:14;;;;;;;27.50;15.75;;;10.70;99.90;;;;;;5075207;28;20020;-80
2021/03/05 00:07:40;;;;;;;32.78;17.73;;;10.80;99.90;;;;;;5073977;28;20062;-81
2021/03/05 00:10:09;;;;;;;29.90;17.70;;;10.70;99.90;;;;;;5074846;28;20035;-79
2021/03/05 00:12:35;;;;;;;29.60;16.42;;;10.70;99.90;;;;;;5074759;28;20040;-79
2021/03/05 00:15:02;;;;;;;28.33;16.15;;;10.70;99.90;;;;;;5074769;28;20024;-79
2021/03/05 00:17:28;;;;;;;28.05;16.83;;;10.70;99.90;;;;;;5074775;28;20027;-79
2021/03/05 00:19:54;;;;;;;25.83;15.75;;;10.70;99.90;;;;;;5074752;28;20120;-78
2021/03/05 00:22:20;;;;;;;26.58;14.38;;;10.70;99.90;;;;;;5074872;28;20027;-78
2021/03/05 00:24:46;;;;;;;24.02;14.38;;;10.60;99.90;;;;;;5090253;28;20032;-80
2021/03/05 00:27:12;;;;;;;24.73;14.55;;;10.60;99.90;;;;;;5074659;28;20013;-79
2021/03/05 00:29:38;;;;;;;26.63;15.50;;;10.60;99.90;;;;;;5076300;28;20028;-78
2021/03/05 00:32:04;;;;;;;24.67;13.52;;;10.50;99.90;;;;;;5079948;28;20484;-79
2021/03/05 00:34:30;;;;;;;24.83;14.07;;;10.50;99.90;;;;;;5073327;28;20393;-80
2021/03/05 00:36:56;;;;;;;22.77;14.10;;;10.50;99.90;;;;;;5074524;28;20025;-78
2021/03/05 00:39:22;;;;;;;25.13;13.68;;;10.60;99.90;;;;;;5074337;28;20052;-79
2021/03/05 00:41:48;;;;;;;26.13;14.82;;;10.50;99.90;;;;;;5074359;28;20029;-79
2021/03/05 00:44:14;;;;;;;24.83;13.75;;;10.50;99.90;;;;;;5074257;28;20056;-79
2021/03/05 00:46:40;;;;;;;25.45;13.27;;;10.50;99.90;;;;;;5074341;28;20031;-80
2021/03/05 00:49:06;;;;;;;24.33;13.45;;;10.50;99.90;;;;;;5089849;28;20032;-78
2021/03/05 00:51:31;;;;;;;21.23;12.00;;;10.50;99.90;;;;;;5074217;28;20085;-78
2021/03/05 00:53:58;;;;;;;24.30;14.23;;;10.60;99.90;;;;;;5089817;28;20032;-78
2021/03/05 00:56:24;;;;;;;21.85;12.35;;;10.60;99.90;;;;;;5074011;28;20025;-78
2021/03/05 00:58:50;;;;;;;24.88;13.70;;;10.60;99.90;;;;;;5073146;28;20493;-79
2021/03/05 01:01:23;;;;;;;18.98;12.63;;;10.50;99.90;;;;;;5072705;28;20377;-79
2021/03/05 01:03:49;;;;;;;24.52;13.02;;;10.50;99.90;;;;;;5074000;28;20028;-78
2021/03/05 01:06:22;;;;;;;;;;;10.50;99.90;;;;;;5073001;28;20025;-78
2021/03/05 01:08:52;;;;;;;22.98;12.57;;;10.40;99.90;;;;;;5072653;28;19961;-78
2021/03/05 01:11:18;;;;;;;28.88;13.30;;;10.50;99.90;;;;;;5073574;28;20502;-78
2021/03/05 01:13:44;;;;;;;21.42;12.70;;;10.40;99.90;;;;;;5072541;28;20469;-78
2021/03/05 01:16:10;;;;;;;22.60;12.55;;;10.40;99.90;;;;;;5073661;28;20064;-78
2021/03/05 01:18:37;;;;;;;18.75;12.00;;;10.30;99.90;;;;;;5073563;28;20106;-78
2021/03/05 01:21:04;;;;;;;25.85;13.60;;;10.40;99.90;;;;;;5073456;28;20117;-78
2021/03/05 01:23:31;;;;;;;21.27;11.65;;;10.40;99.90;;;;;;5072195;28;20051;-78
2021/03/05 01:25:57;;;;;;;18.27;11.32;;;10.40;99.90;;;;;;5073432;28;20025;-78
2021/03/05 01:28:26;;;;;;;23.27;11.95;;;10.40;99.90;;;;;;5072323;28;20109;-78
2021/03/05 01:30:52;;;;;;;20.02;11.25;;;10.30;99.90;;;;;;5073287;28;20032;-78
2021/03/05 01:33:18;;;;;;;19.45;10.80;;;10.30;99.90;;;;;;5072167;28;20029;-80
2021/03/05 01:35:44;;;;;;;19.80;10.80;;;10.30;99.90;;;;;;5073277;28;20028;-78
2021/03/05 01:38:10;;;;;;;22.58;10.88;;;10.30;99.90;;;;;;5073144;28;20027;-80
2021/03/05 01:40:39;;;;;;;19.23;10.88;;;10.30;99.90;;;;;;5088717;28;20028;-80
2021/03/05 01:43:11;;;;;;;20.98;10.52;;;10.30;99.90;;;;;;5073240;28;20021;-79
2021/03/05 01:45:38;;;;;;;18.13;10.52;;;10.30;99.90;;;;;;5079190;28;20103;-78
2021/03/05 01:48:08;;;;;;;20.35;9.88;;;10.30;99.90;;;;;;5075401;28;20523;-78
2021/03/05 01:51:07;;;;;;;23.25;11.13;;;10.40;99.90;;;;;;5071676;28;20032;-78
2021/03/05 01:53:33;;;;;;;20.38;11.15;;;10.40;99.90;;;;;;5055048;28;20071;-79
2021/03/05 01:55:59;;;;;;;17.67;9.88;;;10.40;99.90;;;;;;5088610;28;20404;-78
2021/03/05 01:58:25;;;;;;;16.42;8.63;;;10.40;99.90;;;;;;5072691;28;20048;-78
2021/03/05 02:00:54;;;;;;;16.35;9.55;;;10.30;99.90;;;;;;5088429;28;20036;-78
2021/03/05 02:03:20;;;;;;;16.75;9.27;;;10.30;99.90;;;;;;5071568;28;20032;-78
2021/03/05 02:05:46;;;;;;;20.25;10.30;;;10.30;99.90;;;;;;5072757;28;20127;-78
2021/03/05 02:08:13;;;;;;;16.52;9.05;;;10.30;99.90;;;;;;5072730;28;20036;-78
2021/03/05 02:10:42;;;;;;;18.00;10.15;;;10.30;99.90;;;;;;5088344;28;20040;-78
2021/03/05 02:13:09;;;;;;;15.20;9.38;;;10.20;99.90;;;;;;5072784;28;20020;-80
2021/03/05 02:15:37;;;;;;;15.38;9.13;;;10.30;99.90;;;;;;5072716;28;20111;-78
2021/03/05 02:18:29;;;;;;;15.40;8.52;;;10.20;99.90;;;;;;5072468;28;20500;-78
2021/03/05 02:21:32;;;;;;;16.40;8.48;;;10.20;99.90;;;;;;5027388;28;20033;-79
2021/03/05 02:24:13;;;;;;;18.70;10.02;;;10.20;99.90;;;;;;5072607;28;20477;-78
2021/03/05 02:27:13;;;;;;;16.73;8.63;;;10.20;99.90;;;;;;5071458;28;20107;-78
2021/03/05 02:29:51;;;;;;;17.58;8.52;;;10.10;99.90;;;;;;5072527;28;20047;-78
2021/03/05 02:32:25;;;;;;;21.30;9.73;;;10.20;99.90;;;;;;5072650;28;20044;-79
2021/03/05 02:34:52;;;;;;;18.02;9.07;;;10.20;99.90;;;;;;5072558;28;20031;-78
2021/03/05 02:37:21;;;;;;;18.23;9.07;;;10.20;99.90;;;;;;5071480;28;20038;-78
2021/03/05 02:40:01;;;;;;;15.13;8.35;;;10.30;99.90;;;;;;5072490;28;20070;-80
2021/03/05 02:42:46;;;;;;;20.00;10.70;;;10.20;99.90;;;;;;5072540;28;20027;-79
2021/03/05 02:45:21;;;;;;;17.88;9.02;;;10.30;99.90;;;;;;5072450;28;20029;-80
2021/03/05 02:47:52;;;;;;;15.45;8.25;;;10.30;99.90;;;;;;5072298;28;20032;-81
2021/03/05 02:50:20;;;;;;;18.48;8.65;;;10.30;99.90;;;;;;5072345;28;20054;-80
2021/03/05 02:52:49;;;;;;;16.70;8.70;;;10.30;99.90;;;;;;5071120;28;20109;-79
2021/03/05 02:55:15;;;;;;;17.20;9.30;;;10.30;99.90;;;;;;5072373;28;20032;-79
2021/03/05 02:57:46;;;;;;;17.98;8.77;;;10.30;99.90;;;;;;5072291;28;20485;-81
2021/03/05 03:00:13;;;;;;;15.30;8.48;;;10.30;99.90;;;;;;5090884;28;20032;-80
2021/03/05 03:02:41;;;;;;;21.13;9.40;;;10.20;99.90;;;;;;5079114;28;20024;-80
2021/03/05 03:05:09;;;;;;;18.50;8.95;;;10.20;99.90;;;;;;5087670;28;20370;-79
2021/03/05 03:07:37;;;;;;;15.00;8.80;;;10.20;99.90;;;;;;5070980;28;20028;-80
2021/03/05 03:10:05;;;;;;;13.70;8.45;;;10.10;99.90;;;;;;5070980;28;20039;-81
2021/03/05 03:12:33;;;;;;;17.75;8.60;;;10.20;99.90;;;;;;5087863;28;20031;-80
2021/03/05 03:15:00;;;;;;;16.17;8.38;;;10.20;99.90;;;;;;5072024;28;20063;-81
2021/03/05 03:17:28;;;;;;;18.90;9.48;;;10.20;99.90;;;;;;5070930;28;20024;-79
2021/03/05 03:19:55;;;;;;;18.10;8.65;;;10.20;99.90;;;;;;5072200;28;20032;-79
2021/03/05 03:22:21;;;;;;;14.02;8.30;;;10.20;99.90;;;;;;5074755;28;20040;-81
2021/03/05 03:24:48;;;;;;;19.33;9.13;;;10.30;99.90;;;;;;5074430;28;20385;-81
2021/03/05 03:27:14;;;;;;;15.82;8.80;;;10.20;99.90;;;;;;5075732;28;20456;-81
2021/03/05 03:29:43;;;;;;;18.00;9.20;;;10.20;99.90;;;;;;5075809;28;20056;-81
2021/03/05 03:32:12;;;;;;;15.10;8.23;;;10.20;99.90;;;;;;5075672;28;20540;-79
2021/03/05 03:34:39;;;;;;;18.65;9.45;;;10.20;99.90;;;;;;5075610;28;20515;-80
2021/03/05 03:37:06;;;;;;;19.17;9.48;;;10.20;99.90;;;;;;5074377;28;20037;-80
2021/03/05 03:39:32;;;;;;;16.38;9.10;;;10.10;99.90;;;;;;5074225;28;20024;-81
2021/03/05 03:42:00;;;;;;;21.55;8.68;;;10.10;99.90;;;;;;5075500;28;20040;-80
2021/03/05 03:44:26;;;;;;;20.92;9.27;;;10.10;99.90;;;;;;5075400;28;20484;-81
2021/03/05 03:46:53;;;;;;;18.63;8.77;;;10.10;99.90;;;;;;5075274;28;20039;-80
2021/03/05 03:49:26;;;;;;;17.48;8.93;;;10.10;99.90;;;;;;5091101;28;20032;-79
2021/03/05 03:52:05;;;;;;;20.85;9.07;;;10.00;99.90;;;;;;5075364;28;20491;-81
2021/03/05 03:54:32;;;;;;;16.25;8.63;;;10.10;99.90;;;;;;5075342;28;20024;-80
2021/03/05 03:57:01;;;;;;;15.23;8.50;;;10.10;99.90;;;;;;5090384;28;20036;-81
2021/03/05 03:59:31;;;;;;;16.23;7.97;;;10.10;99.90;;;;;;5075347;28;20112;-79
2021/03/05 04:01:58;;;;;;;16.60;8.68;;;10.10;99.90;;;;;;5075587;28;20070;-80
2021/03/05 04:04:29;;;;;;;18.55;9.23;;;10.00;99.90;;;;;;5075283;28;20039;-81
2021/03/05 04:06:56;;;;;;;15.93;7.90;;;10.00;99.90;;;;;;5075204;28;20495;-79
2021/03/05 04:09:22;;;;;;;20.02;9.57;;;10.10;99.90;;;;;;5074928;28;20119;-79
2021/03/05 04:11:49;;;;;;;20.40;8.98;;;10.00;99.90;;;;;;5074904;28;20074;-81
2021/03/05 04:14:15;;;;;;;18.42;8.15;;;10.00;99.90;;;;;;5076362;28;20020;-81
2021/03/05 04:16:41;;;;;;;15.10;9.27;;;10.00;99.90;;;;;;5083349;28;20041;-79
2021/03/05 04:19:07;;;;;;;16.85;9.27;;;10.00;99.90;;;;;;5074802;28;20473;-80
2021/03/05 04:21:35;;;;;;;15.52;9.38;;;10.00;99.90;;;;;;5074872;28;20025;-79
2021/03/05 04:24:03;;;;;;;17.70;9.95;;;10.00;99.90;;;;;;5090390;28;20039;-80
2021/03/05 04:26:28;;;;;;;18.23;9.63;;;10.00;99.90;;;;;;5074720;28;20055;-80
2021/03/05 04:28:54;;;;;;;22.25;10.23;;;10.00;99.90;;;;;;5074599;28;20465;-79
2021/03/05 04:31:20;;;;;;;15.52;8.98;;;10.00;99.90;;;;;;5074411;28;20040;-80
2021/03/05 04:33:47;;;;;;;20.27;10.57;;;10.00;99.90;;;;;;5073399;28;20021;-79
2021/03/05 04:36:13;;;;;;;16.20;9.25;;;10.00;99.90;;;;;;5090158;28;20484;-79
2021/03/05 04:38:38;;;;;;;16.65;8.70;;;10.10;99.90;;;;;;5074577;28;20037;-80
2021/03/05 04:41:04;;;;;;;17.67;8.95;;;10.00;99.90;;;;;;5073228;28;20563;-80
2021/03/05 04:43:30;;;;;;;14.43;8.48;;;10.00;99.90;;;;;;5074378;28;20039;-79
2021/03/05 04:45:56;;;;;;;18.73;9.02;;;10.10;99.90;;;;;;5074321;28;20029;-80
2021/03/05 04:48:22;;;;;;;15.45;8.05;;;10.10;99.90;;;;;;5074280;28;20138;-80
2021/03/05 04:50:48;;;;;;;18.23;10.27;;;10.10;99.90;;;;;;5089917;28;20082;-80
2021/03/05 04:53:14;;;;;;;19.88;8.75;;;10.00;99.90;;;;;;5074366;28;20508;-80
2021/03/05 04:55:40;;;;;;;17.70;10.20;;;10.00;99.90;;;;;;5074164;28;20107;-80
2021/03/05 04:58:06;;;;;;;14.40;8.77;;;9.90;99.90;;;;;;5073870;28;20454;-79
2021/03/05 05:00:32;;;;;;;19.10;9.35;;;9.90;99.90;;;;;;5089623;28;20031;-80
2021/03/05 05:02:58;;;;;;;18.15;9.75;;;9.90;99.90;;;;;;5074152;28;20111;-79
2021/03/05 05:05:24;;;;;;;20.05;9.32;;;9.90;99.90;;;;;;5089708;28;20050;-80
2021/03/05 05:07:50;;;;;;;16.00;8.55;;;9.90;99.90;;;;;;5074233;28;20036;-79
2021/03/05 05:10:17;;;;;;;19.17;9.65;;;9.90;99.90;;;;;;5073854;28;20033;-79
2021/03/05 05:12:43;;;;;;;17.50;9.02;;;9.90;99.90;;;;;;5089944;28;20037;-79
2021/03/05 05:15:09;;;;;;;17.10;8.85;;;10.00;99.90;;;;;;5072499;28;20048;-80
2021/03/05 05:17:35;;;;;;;16.13;9.07;;;10.00;99.90;;;;;;5073881;28;20115;-80
2021/03/05 05:20:01;;;;;;;18.58;8.60;;;10.00;99.90;;;;;;5089313;28;20162;-79
2021/03/05 05:22:27;;;;;;;15.50;9.07;;;10.00;99.90;;;;;;5073728;28;20066;-79
2021/03/05 05:24:53;;;;;;;15.98;8.98;;;10.10;99.90;;;;;;5073420;28;20035;-79
2021/03/05 05:27:19;;;;;;;16.15;9.07;;;10.10;99.90;;;;;;5073507;28;20481;-79
2021/03/05 05:29:45;;;;;;;19.50;9.32;;;10.20;99.90;;;;;;5074086;28;20056;-79
2021/03/05 05:32:11;;;;;;;15.87;8.30;;;10.20;99.90;;;;;;5082390;28;20477;-81
2021/03/05 05:34:37;;;;;;;18.80;8.55;;;10.20;99.90;;;;;;5072635;28;20662;-80
2021/03/05 05:37:03;;;;;;;19.08;9.13;;;10.20;99.90;;;;;;5089742;28;20060;-80
2021/03/05 05:39:28;;;;;;;19.33;8.98;;;10.30;99.90;;;;;;5074271;28;20046;-79
2021/03/05 05:41:55;;;;;;;17.77;7.95;;;10.30;99.90;;;;;;5072152;28;20032;-80
2021/03/05 05:44:21;;;;;;;14.23;8.02;;;10.30;99.90;;;;;;5072887;28;20370;-79
2021/03/05 05:46:49;;;;;;;16.30;8.30;;;10.40;99.90;;;;;;5073081;28;20078;-79
2021/03/05 05:49:17;;;;;;;17.58;8.98;;;10.40;99.90;;;;;;5088644;28;20119;-79
2021/03/05 05:51:45;;;;;;;16.08;8.77;;;10.40;99.90;;;;;;5073066;28;20036;-79
2021/03/05 05:54:22;;;;;;;21.65;9.43;;;10.40;99.90;;;;;;5072980;28;20031;-80
2021/03/05 05:56:48;;;;;;;23.13;10.02;;;10.50;99.90;;;;;;5071539;28;20128;-79
2021/03/05 05:59:14;;;;;;;16.30;8.23;;;10.60;99.90;;;;;;5073239;28;20483;-81
2021/03/05 06:01:41;;;;;;;17.58;8.05;;;10.60;99.90;;;;;;5088663;28;20024;-79
2021/03/05 06:04:07;;;;;;;14.95;7.75;;;10.60;99.90;;;;;;5088450;28;20029;-79
2021/03/05 06:06:36;;;;;;;15.52;8.50;;;10.70;99.90;;;;;;5072891;28;20033;-79
2021/03/05 06:09:03;;;;;;;22.75;9.75;;;10.70;99.90;;;;;;5072670;28;20024;-81
2021/03/05 06:11:35;;;;;;;18.13;8.52;;;10.80;99.90;;;;;;5072682;28;20477;-79
2021/03/05 06:14:03;;;;;;;15.90;8.70;;;10.90;99.90;;;;;;5071458;28;20421;-80
2021/03/05 06:16:29;;;;;;;15.88;8.77;;;10.90;99.90;;;;;;5072702;28;20036;-79
2021/03/05 06:18:55;;;;;;;12.25;7.30;;;11.00;99.90;;;;;;5072630;28;20024;-80
2021/03/05 06:21:38;;;;;;;21.70;9.23;;;11.00;99.90;;;;;;5072605;28;20031;-79
2021/03/05 06:24:08;;;;;;;15.68;7.82;;;11.00;99.90;;;;;;5072525;28;20499;-80
2021/03/05 06:26:58;;;;;;;17.05;9.35;;;11.10;99.90;;;;;;5072700;28;20024;-80
2021/03/05 06:29:45;;;;;;;17.38;9.15;;;11.20;99.90;;;;;;5072720;28;20409;-81
2021/03/05 06:32:13;;;;;;;18.35;8.93;;;11.20;99.90;;;;;;5072488;28;20491;-79
2021/03/05 06:34:50;;;;;;;15.70;8.98;;;11.20;99.90;;;;;;5072712;28;20028;-81
2021/03/05 06:37:18;;;;;;;16.00;8.90;;;11.30;99.90;;;;;;5071399;28;20028;-81
2021/03/05 06:39:44;;;;;;;20.27;8.60;;;11.30;99.90;;;;;;5072642;28;20035;-81
2021/03/05 06:42:12;;;;;;;15.95;7.90;;;11.40;99.90;;;;;;5087960;28;20370;-81
2021/03/05 06:44:40;;;;;;;17.50;9.27;;;11.40;99.90;;;;;;5072912;28;20040;-80
2021/03/05 06:47:17;;;;;;;13.38;7.65;;;11.50;99.90;;;;;;5074626;28;20082;-80
2021/03/05 06:49:45;;;;;;;18.48;8.20;;;11.60;99.90;;;;;;5072649;28;20024;-80
2021/03/05 06:52:12;;;;;;;15.88;8.05;;;11.60;99.90;;;;;;5072290;28;20465;-79
2021/03/05 06:54:40;;;;;;;17.45;8.75;;;11.70;99.90;;;;;;5071277;28;20078;-81
2021/03/05 06:57:07;;;;;;;19.42;8.98;;;11.70;99.90;;;;;;5073297;28;20131;-81
2021/03/05 06:59:39;;;;;;;14.48;8.07;;;11.80;99.90;;;;;;5076303;28;20044;-81
2021/03/05 07:02:09;;;;;;;15.98;7.85;;;11.90;99.90;;;;;;5076246;28;20042;-81
2021/03/05 07:04:51;;;;;;;14.63;8.88;;;11.90;99.90;;;;;;5076237;28;20536;-79
2021/03/05 07:07:19;;;;;;;12.32;8.50;;;12.10;99.90;;;;;;5091786;28;20036;-81
2021/03/05 07:09:47;;;;;;;20.33;9.20;;;12.10;99.90;;;;;;5076153;28;20139;-81
2021/03/05 07:12:18;;;;;;;17.88;8.63;;;12.20;99.90;;;;;;5076000;28;20029;-80
2021/03/05 07:14:47;;;;;;;19.38;8.55;;;12.30;99.90;;;;;;5076057;28;20055;-81
2021/03/05 07:17:14;;;;;;;17.85;9.15;;;12.40;99.90;;;;;;5075961;28;20493;-80
2021/03/05 07:19:40;;;;;;;16.25;8.60;;;12.40;99.90;;;;;;5075860;28;20039;-82
2021/03/05 07:22:08;;;;;;;13.50;8.68;;;12.50;99.90;;;;;;5075814;28;20102;-80
2021/03/05 07:24:38;;;;;;;19.42;8.63;;;12.50;99.90;;;;;;5075747;28;20082;-79
2021/03/05 07:27:09;;;;;;;14.38;7.53;;;12.50;99.90;;;;;;5075914;28;20082;-79
2021/03/05 07:29:37;;;;;;;18.45;8.65;;;12.60;99.90;;;;;;5075733;28;20052;-80
2021/03/05 07:32:05;;;;;;;16.52;8.93;;;12.70;99.90;;;;;;5075654;28;20115;-81
2021/03/05 07:34:51;;;;;;;15.93;7.93;;;12.70;99.90;;;;;;5075745;28;20025;-81
2021/03/05 07:37:18;;;;;;;15.65;7.18;;;12.80;99.90;;;;;;5075392;28;20112;-81
2021/03/05 07:39:49;;;;;;;15.00;7.22;;;12.90;99.90;;;;;;5075480;28;20432;-79
2021/03/05 07:42:18;;;;;;;17.55;7.57;;;12.90;99.90;;;;;;5075346;28;20489;-79
2021/03/05 07:44:51;;;;;;;14.57;6.63;;;12.90;99.90;;;;;;5075309;28;20032;-81
2021/03/05 07:47:17;;;;;;;16.13;6.82;;;12.90;99.90;;;;;;5075180;28;20066;-79
2021/03/05 07:49:44;;;;;;;9.98;6.95;;;13.00;99.90;;;;;;5075325;28;20029;-79
2021/03/05 07:52:11;;;;;;;12.25;6.10;;;13.00;99.90;;;;;;5075371;28;20484;-81
2021/03/05 07:54:40;;;;;;;13.45;6.68;;;13.00;99.90;;;;;;5075100;28;20151;-81
2021/03/05 07:57:18;;;;;;;15.13;7.35;;;13.00;99.90;;;;;;5073646;28;20448;-79
2021/03/05 07:59:46;;;;;;;11.73;6.82;;;13.10;99.90;;;;;;5075263;28;20048;-78
2021/03/05 08:02:13;;;;;;;14.57;7.85;;;13.20;99.90;;;;;;5075568;28;20082;-79
2021/03/05 08:04:50;;;;;;;12.35;6.22;;;13.20;99.90;;;;;;5074140;28;20103;-80
2021/03/05 08:07:17;;;;;;;12.38;7.10;;;13.20;99.90;;;;;;5074827;28;20036;-79
2021/03/05 08:09:43;;;;;;;12.43;7.60;;;13.30;99.90;;;;;;5096929;28;20460;-83
2021/03/05 08:12:26;;;;;;;14.20;7.03;;;13.50;99.90;;;;;;5078454;28;20036;-81
2021/03/05 08:15:07;;;;;;;11.85;6.35;;;13.60;99.90;;;;;;5079139;28;20362;-81
2021/03/05 08:17:40;;;;;;;9.13;5.82;;;13.80;99.90;;;;;;5079839;28;20028;-80
2021/03/05 08:20:08;;;;;;;10.02;5.32;;;13.80;99.90;;;;;;5082318;28;20169;-80
2021/03/05 08:23:03;;;;;;;11.27;7.25;;;14.00;99.90;;;;;;5080207;28;20029;-81
2021/03/05 08:25:49;;;;;;;15.00;6.85;;;14.10;99.90;;;;;;5082547;28;20075;-82
2021/03/05 08:28:46;;;;;;;12.52;5.72;;;14.20;99.90;;;;;;5080517;28;20508;-81
2021/03/05 08:31:34;;;;;;;13.23;5.80;;;14.40;99.90;;;;;;5068648;28;20048;-79
2021/03/05 08:34:26;;;;;;;10.05;6.28;;;14.60;99.90;;;;;;5081949;28;20036;-83
2021/03/05 08:36:53;;;;;;;9.43;5.75;;;14.70;99.90;;;;;;5073376;28;20523;-80
2021/03/05 08:39:27;;;;;;;10.55;5.85;;;14.70;99.90;;;;;;5084611;28;20036;-80
2021/03/05 08:42:35;;;;;;;8.77;5.18;;;14.70;99.90;;;;;;5080155;28;20039;-81
2021/03/05 08:45:12;;;;;;;11.60;5.82;;;14.60;99.90;;;;;;5076654;28;20044;-80
2021/03/05 08:47:40;;;;;;;13.25;5.70;;;14.80;99.90;;;;;;5078737;28;20020;-79
2021/03/05 08:50:08;;;;;;;12.70;5.32;;;14.80;99.90;;;;;;5084397;28;20039;-80
2021/03/05 08:52:35;;;;;;;12.93;5.75;;;14.80;99.90;;;;;;5081050;28;20055;-82
2021/03/05 08:55:05;;;;;;;15.80;6.50;;;14.80;99.90;;;;;;5079657;28;20099;-80
2021/03/05 08:57:54;;;;;;;10.18;5.43;;;14.70;99.90;;;;;;5081414;28;20052;-82
2021/03/05 09:00:27;;;;;;;9.38;4.80;;;14.80;99.90;;;;;;5078951;28;20477;-78
2021/03/05 09:03:03;;;;;;;14.50;6.50;;;14.70;99.90;;;;;;5074972;28;20107;-79
2021/03/05 09:05:33;;;;;;;10.57;6.60;;;14.90;99.90;;;;;;5089910;28;20028;-79
2021/03/05 09:08:00;;;;;;;14.13;6.72;;;14.90;99.90;;;;;;5073730;28;20020;-79
2021/03/05 09:10:40;;;;;;;9.13;5.25;;;14.90;99.90;;;;;;5073842;28;20056;-79
2021/03/05 09:13:06;;;;;;;8.27;5.05;;;15.10;99.90;;;;;;5075707;28;20020;-80
2021/03/05 09:15:47;;;;;;;9.40;4.63;;;15.00;99.90;;;;;;5075385;28;20090;-79
2021/03/05 09:18:16;;;;;;;16.50;6.13;;;14.90;99.90;;;;;;5076003;28;20078;-80
2021/03/05 09:20:47;;;;;;;10.32;5.10;;;14.80;99.90;;;;;;5075192;28;20020;-78
2021/03/05 09:23:14;;;;;;;9.10;5.20;;;14.80;99.90;;;;;;5074941;28;20024;-80
2021/03/05 09:25:55;;;;;;;16.50;5.78;;;14.80;99.90;;;;;;5072518;28;20021;-81
2021/03/05 09:28:35;;;;;;;9.32;4.75;;;15.10;99.90;;;;;;5076303;28;20053;-80
2021/03/05 09:31:02;;;;;;;11.52;5.07;;;15.10;99.90;;;;;;5074356;28;20037;-80
2021/03/05 09:33:34;;;;;;;6.70;4.78;;;15.20;99.90;;;;;;5073718;28;20427;-80
2021/03/05 09:36:03;;;;;;;15.48;5.22;;;15.20;99.90;;;;;;5072410;28;20401;-79
2021/03/05 09:38:29;;;;;;;8.43;4.63;;;15.40;99.90;;;;;;5073479;28;20024;-80
2021/03/05 09:41:10;;;;;;;8.82;5.63;;;15.70;99.90;;;;;;5076587;28;20481;-80
2021/03/05 09:43:36;;;;;;;8.43;5.03;;;15.90;99.90;;;;;;5073414;28;20027;-77
2021/03/05 09:46:16;;;;;;;13.82;5.53;;;16.00;99.90;;;;;;5075407;28;20385;-84
2021/03/05 09:48:42;;;;;;;12.80;5.57;;;16.00;99.90;;;;;;5074782;28;20035;-80
2021/03/05 09:51:08;;;;;;;25.87;5.43;;;16.20;99.90;;;;;;5072928;28;20036;-83
2021/03/05 09:53:36;;;;;;;6.10;4.25;;;16.30;99.90;;;;;;5072260;28;20400;-81
2021/03/05 09:56:04;;;;;;;12.02;4.57;;;16.10;99.90;;;;;;5072829;28;20032;-78
2021/03/05 09:58:31;;;;;;;10.13;5.25;;;16.00;99.90;;;;;;5072814;28;20059;-79
2021/03/05 10:00:58;;;;;;;11.38;5.50;;;15.90;99.90;;;;;;5072900;28;20028;-78
2021/03/05 10:03:24;;;;;;;7.25;4.20;;;15.70;99.90;;;;;;5073047;28;20028;-80
2021/03/05 10:05:50;;;;;;;24.25;5.55;;;15.50;99.90;;;;;;5072854;28;20112;-81
2021/03/05 10:08:27;;;;;;;8.07;4.53;;;15.70;99.90;;;;;;5072774;28;20039;-79
2021/03/05 10:11:09;;;;;;;11.95;4.55;;;15.90;99.90;;;;;;5072686;28;20032;-79
2021/03/05 10:13:50;;;;;;;10.10;3.90;;;16.20;99.90;;;;;;5072899;28;20500;-81
2021/03/05 10:16:23;;;;;;;6.18;3.65;;;16.20;99.90;;;;;;5072755;28;20029;-82
2021/03/05 10:18:50;;;;;;;;;;;16.10;99.90;;;;;;5073301;28;20029;-79
2021/03/05 10:21:18;;;;;;;7.30;4.28;;;16.00;99.90;;;;;;5071651;28;20007;-81
2021/03/05 10:23:45;;;;;;;9.82;4.18;;;16.10;99.90;;;;;;5073138;28;20032;-79
2021/03/05 10:26:31;;;;;;;10.02;4.82;;;16.00;99.90;;;;;;5072533;28;20074;-80
2021/03/05 10:29:06;;;;;;;5.70;4.15;;;16.10;99.90;;;;;;5072292;28;20378;-80
2021/03/05 10:31:52;;;;;;;8.18;4.57;;;16.20;99.90;;;;;;5071695;28;20063;-79
2021/03/05 10:34:26;;;;;;;9.50;4.55;;;16.30;99.90;;;;;;5072843;28;20095;-80
2021/03/05 10:36:54;;;;;;;10.80;4.65;;;16.50;99.90;;;;;;5072580;28;20025;-79
2021/03/05 10:39:21;;;;;;;13.15;4.75;;;16.60;99.90;;;;;;5072319;28;20104;-80
2021/03/05 10:42:09;;;;;;;9.32;4.25;;;16.70;99.90;;;;;;5072351;28;20029;-79
2021/03/05 10:44:35;;;;;;;10.00;4.95;;;16.70;99.90;;;;;;5072395;28;20048;-80
2021/03/05 10:47:06;;;;;;;8.27;4.53;;;16.80;99.90;;;;;;5072343;28;20063;-79
2021/03/05 10:49:32;;;;;;;11.15;3.97;;;16.70;99.90;;;;;;5072396;28;20273;-81
2021/03/05 10:51:59;;;;;;;9.13;3.72;;;16.80;99.90;;;;;;5072233;28;20062;-80
2021/03/05 10:54:26;;;;;;;8.18;4.30;;;16.90;99.90;;;;;;5070914;28;20070;-81
2021/03/05 10:56:53;;;;;;;7.88;4.57;;;16.70;99.90;;;;;;5072190;28;20052;-80
2021/03/05 10:59:20;;;;;;;8.75;4.95;;;16.60;99.90;;;;;;5072079;28;20045;-79
2021/03/05 11:01:47;;;;;;;7.03;4.00;;;16.70;99.90;;;;;;5074891;28;20024;-81
2021/03/05 11:04:17;;;;;;;8.30;4.05;;;16.60;99.90;;;;;;5099852;28;20020;-82
2021/03/05 11:06:44;;;;;;;15.32;4.60;;;16.70;99.90;;;;;;5102792;28;20035;-81
2021/03/05 11:09:11;;;;;;;8.13;5.05;;;17.00;99.90;;;;;;5103793;28;20063;-82
2021/03/05 11:11:38;;;;;;;6.72;4.20;;;17.20;99.70;;;;;;5106088;28;20036;-82
2021/03/05 11:14:04;;;;;;;5.75;3.63;;;17.60;99.30;;;;;;5102506;28;20020;-81
2021/03/05 11:16:30;;;;;;;7.47;3.80;;;17.80;98.80;;;;;;5099591;28;20032;-82
2021/03/05 11:18:56;;;;;;;8.23;5.32;;;18.00;97.80;;;;;;5100747;28;20460;-82
2021/03/05 11:21:22;;;;;;;9.30;4.78;;;18.30;97.60;;;;;;5098781;28;20103;-82
2021/03/05 11:23:49;;;;;;;8.38;4.63;;;18.30;97.40;;;;;;5098648;28;20032;-82
2021/03/05 11:26:15;;;;;;;9.98;4.53;;;18.30;97.50;;;;;;5097942;28;20025;-83
2021/03/05 11:28:42;;;;;;;8.52;4.10;;;18.40;97.20;;;;;;5098129;28;20028;-83
2021/03/05 11:31:09;;;;;;;11.65;4.70;;;18.40;97.20;;;;;;5094968;28;20032;-81
2021/03/05 11:33:34;;;;;;;8.82;4.72;;;18.30;97.90;;;;;;5074018;28;20028;-81
2021/03/05 11:36:00;;;;;;;13.03;5.30;;;18.20;97.90;;;;;;5090630;28;20388;-81
2021/03/05 11:38:27;;;;;;;5.78;3.45;;;18.40;98.50;;;;;;5091920;28;20273;-82
2021/03/05 11:40:52;;;;;;;9.07;4.88;;;18.20;97.20;;;;;;5092176;28;20024;-80
2021/03/05 11:43:18;;;;;;;12.00;4.57;;;18.40;97.40;;;;;;5094711;28;20057;-82
2021/03/05 11:45:44;;;;;;;8.32;4.10;;;18.50;97.00;;;;;;5096386;28;20032;-80
2021/03/05 11:48:11;;;;;;;8.90;4.93;;;18.30;97.30;;;;;;5100366;28;20020;-81
2021/03/05 11:50:37;;;;;;;9.50;4.10;;;18.00;97.40;;;;;;5094321;28;20296;-81
2021/03/05 11:53:03;;;;;;;10.32;4.63;;;17.90;97.40;;;;;;5095466;28;20085;-82
2021/03/05 11:55:32;;;;;;;20.83;5.80;;;17.80;97.10;;;;;;5095614;28;20028;-81
2021/03/05 11:58:00;;;;;;;7.47;4.53;;;17.90;97.30;;;;;;5095296;28;20048;-81
2021/03/05 12:00:27;;;;;;;10.13;4.38;;;18.10;96.80;;;;;;5095493;28;20056;-80
2021/03/05 12:02:53;;;;;;;10.13;4.90;;;18.40;97.20;;;;;;5095326;28;20024;-82
2021/03/05 12:05:19;;;;;;;6.38;3.75;;;18.80;96.60;;;;;;5094113;28;20052;-80
2021/03/05 12:07:45;;;;;;;6.40;3.55;;;18.80;95.30;;;;;;5095319;28;20028;-80
2021/03/05 12:10:11;;;;;;;8.98;4.63;;;18.70;95.50;;;;;;5095110;28;20028;-81
2021/03/05 12:12:37;;;;;;;13.20;4.78;;;18.90;96.20;;;;;;5095272;28;20032;-79
2021/03/05 12:15:04;;;;;;;9.27;4.07;;;19.40;96.10;;;;;;5095229;28;20035;-80
2021/03/05 12:17:30;;;;;;;7.60;4.13;;;19.50;94.90;;;;;;5095088;28;20031;-80
2021/03/05 12:19:56;;;;;;;7.72;4.43;;;19.50;95.20;;;;;;5095167;28;20028;-79
2021/03/05 12:22:22;;;;;;;10.27;5.75;;;19.10;94.80;;;;;;5095170;28;20383;-80
2021/03/05 12:24:48;;;;;;;8.77;4.72;;;19.20;95.20;;;;;;5095042;28;20110;-80
2021/03/05 12:27:14;;;;;;;10.93;4.43;;;18.90;96.10;;;;;;5094991;28;20097;-81
2021/03/05 12:29:40;;;;;;;8.10;4.72;;;18.70;96.60;;;;;;5095112;28;20495;-81
2021/03/05 12:32:06;;;;;;;10.23;4.90;;;18.30;97.40;;;;;;5094606;28;20071;-80
2021/03/05 12:34:32;;;;;;;9.63;5.00;;;18.00;98.20;;;;;;5094724;28;20270;-80
2021/03/05 12:36:59;;;;;;;11.30;4.72;;;17.70;98.90;;;;;;5094553;28;20451;-82
2021/03/05 12:39:25;;;;;;;8.52;4.57;;;17.60;99.60;;;;;;5094623;28;20111;-82
2021/03/05 12:41:51;;;;;;;11.85;4.75;;;18.10;98.70;;;;;;5094745;28;20066;-81
2021/03/05 12:44:17;;;;;;;8.40;4.55;;;18.10;98.70;;;;;;5094649;28;20024;-82
2021/03/05 12:46:43;;;;;;;11.65;5.22;;;18.00;98.70;;;;;;5093133;28;20067;-81
2021/03/05 12:49:08;;;;;;;10.10;5.43;;;17.60;98.60;;;;;;5094432;28;20020;-82